sensor_id;sensor_type;location;lat;lon;timestamp;temperature;humidity
15384;DHT22;7790;53.022;12.968;2023-02-18T00:00:35;21.20;41.00
15384;DHT22;7790;53.022;12.968;2023-02-18T00:04:36;21.10;41.00
15384;DHT22;7790;53.022;12.968;2023-02-18T00:08:37;21.20;41.00
15384;DHT22;7790;53.022;12.968;2023-02-18T00:12:38;21.20;41.00
15384;DHT22;7790;53.022;12.968;2023-02-18T00:16:40;21.20;41.00
15384;DHT22;7790;53.022;12.968;2023-02-18T00:20:41;21.20;41.00
15384;DHT22;7790;53.022;12.968;2023-02-18T00:24:41;21.20;41.00
15384;DHT22;7790;53.022;12.968;2023-02-18T00:28:43;21.30;41.10
15384;DHT22;7790;53.022;12.968;2023-02-18T00:32:44;21.30;41.10
15384;DHT22;7790;53.022;12.968;2023-02-18T00:36:45;21.30;41.10
15384;DHT22;7790;53.022;12.968;2023-02-18T00:40:46;21.30;41.10
15384;DHT22;7790;53.022;12.968;2023-02-18T00:44:48;21.20;41.00
15384;DHT22;7790;53.022;12.968;2023-02-18T00:48:49;21.20;41.10
15384;DHT22;7790;53.022;12.968;2023-02-18T00:52:50;21.10;41.10
15384;DHT22;7790;53.022;12.968;2023-02-18T00:56:51;21.10;41.20
15384;DHT22;7790;53.022;12.968;2023-02-18T01:00:53;21.10;41.10
15384;DHT22;7790;53.022;12.968;2023-02-18T01:04:54;21.10;41.10
15384;DHT22;7790;53.022;12.968;2023-02-18T01:08:55;21.20;41.10
15384;DHT22;7790;53.022;12.968;2023-02-18T01:12:56;21.20;41.10
15384;DHT22;7790;53.022;12.968;2023-02-18T01:16:56;21.20;41.10
15384;DHT22;7790;53.022;12.968;2023-02-18T01:20:58;21.30;41.10
15384;DHT22;7790;53.022;12.968;2023-02-18T01:24:59;21.30;41.10
15384;DHT22;7790;53.022;12.968;2023-02-18T01:29:00;21.30;41.00
15384;DHT22;7790;53.022;12.968;2023-02-18T01:33:01;21.30;41.10
15384;DHT22;7790;53.022;12.968;2023-02-18T01:37:02;21.30;41.10
15384;DHT22;7790;53.022;12.968;2023-02-18T01:41:04;21.20;41.00
15384;DHT22;7790;53.022;12.968;2023-02-18T01:49:51;21.20;41.10
15384;DHT22;7790;53.022;12.968;2023-02-18T01:57:56;21.20;41.00
15384;DHT22;7790;53.022;12.968;2023-02-18T02:01:57;21.20;41.00
15384;DHT22;7790;53.022;12.968;2023-02-18T02:05:58;21.20;41.10
15384;DHT22;7790;53.022;12.968;2023-02-18T02:10:00;21.20;41.00
15384;DHT22;7790;53.022;12.968;2023-02-18T02:31:49;21.40;40.90
15384;DHT22;7790;53.022;12.968;2023-02-18T02:36:25;21.30;40.90
15384;DHT22;7790;53.022;12.968;2023-02-18T02:53:07;21.20;41.00
15384;DHT22;7790;53.022;12.968;2023-02-18T03:14:01;21.30;40.90
15384;DHT22;7790;53.022;12.968;2023-02-18T03:22:38;21.30;40.80
15384;DHT22;7790;53.022;12.968;2023-02-18T03:26:45;21.30;40.80
15384;DHT22;7790;53.022;12.968;2023-02-18T03:30:50;21.20;40.80
15384;DHT22;7790;53.022;12.968;2023-02-18T03:34:56;21.20;40.80
15384;DHT22;7790;53.022;12.968;2023-02-18T03:39:17;21.10;40.90
15384;DHT22;7790;53.022;12.968;2023-02-18T03:43:20;21.10;40.90
15384;DHT22;7790;53.022;12.968;2023-02-18T03:47:22;21.20;40.90
15384;DHT22;7790;53.022;12.968;2023-02-18T03:51:22;21.20;40.90
15384;DHT22;7790;53.022;12.968;2023-02-18T03:55:23;21.20;40.90
15384;DHT22;7790;53.022;12.968;2023-02-18T03:59:24;21.20;40.90
15384;DHT22;7790;53.022;12.968;2023-02-18T04:03:25;21.30;41.00
15384;DHT22;7790;53.022;12.968;2023-02-18T04:07:26;21.30;40.90
15384;DHT22;7790;53.022;12.968;2023-02-18T04:11:26;21.30;40.90
15384;DHT22;7790;53.022;12.968;2023-02-18T04:15:27;21.40;41.00
15384;DHT22;7790;53.022;12.968;2023-02-18T04:19:28;21.30;41.00
15384;DHT22;7790;53.022;12.968;2023-02-18T04:23:29;21.30;40.90
15384;DHT22;7790;53.022;12.968;2023-02-18T04:27:30;21.20;40.90
15384;DHT22;7790;53.022;12.968;2023-02-18T04:31:31;21.20;40.80
15384;DHT22;7790;53.022;12.968;2023-02-18T04:35:31;21.10;40.90
15384;DHT22;7790;53.022;12.968;2023-02-18T04:39:33;21.10;40.90
15384;DHT22;7790;53.022;12.968;2023-02-18T04:43:34;21.10;40.90
15384;DHT22;7790;53.022;12.968;2023-02-18T04:47:35;21.10;40.90
15384;DHT22;7790;53.022;12.968;2023-02-18T04:51:36;21.20;40.90
15384;DHT22;7790;53.022;12.968;2023-02-18T04:55:37;21.20;40.80
15384;DHT22;7790;53.022;12.968;2023-02-18T04:59:38;21.20;40.80
15384;DHT22;7790;53.022;12.968;2023-02-18T05:03:38;21.30;40.80
15384;DHT22;7790;53.022;12.968;2023-02-18T05:07:39;21.30;40.80
15384;DHT22;7790;53.022;12.968;2023-02-18T05:11:42;21.30;40.80
15384;DHT22;7790;53.022;12.968;2023-02-18T05:15:43;21.40;40.80
15384;DHT22;7790;53.022;12.968;2023-02-18T05:19:44;21.30;40.80
15384;DHT22;7790;53.022;12.968;2023-02-18T05:23:44;21.30;40.70
15384;DHT22;7790;53.022;12.968;2023-02-18T05:27:45;21.20;40.70
15384;DHT22;7790;53.022;12.968;2023-02-18T05:31:46;21.20;40.70
15384;DHT22;7790;53.022;12.968;2023-02-18T05:35:47;21.10;40.80
15384;DHT22;7790;53.022;12.968;2023-02-18T05:39:48;21.10;40.80
15384;DHT22;7790;53.022;12.968;2023-02-18T05:43:49;21.10;40.70
15384;DHT22;7790;53.022;12.968;2023-02-18T05:48:08;21.20;40.80
15384;DHT22;7790;53.022;12.968;2023-02-18T05:52:10;21.20;40.70
15384;DHT22;7790;53.022;12.968;2023-02-18T05:56:12;21.20;40.80
15384;DHT22;7790;53.022;12.968;2023-02-18T06:00:13;21.30;41.00
15384;DHT22;7790;53.022;12.968;2023-02-18T06:04:14;21.30;40.80
15384;DHT22;7790;53.022;12.968;2023-02-18T06:08:15;21.30;40.80
15384;DHT22;7790;53.022;12.968;2023-02-18T06:12:16;21.40;41.00
15384;DHT22;7790;53.022;12.968;2023-02-18T06:16:17;21.40;40.80
15384;DHT22;7790;53.022;12.968;2023-02-18T06:20:17;21.40;40.80
15384;DHT22;7790;53.022;12.968;2023-02-18T06:24:18;21.50;40.80
15384;DHT22;7790;53.022;12.968;2023-02-18T06:28:19;21.50;40.70
15384;DHT22;7790;53.022;12.968;2023-02-18T06:32:20;21.50;40.80
15384;DHT22;7790;53.022;12.968;2023-02-18T06:36:21;21.50;40.60
15384;DHT22;7790;53.022;12.968;2023-02-18T06:40:21;21.40;40.60
15384;DHT22;7790;53.022;12.968;2023-02-18T06:44:22;21.40;40.70
15384;DHT22;7790;53.022;12.968;2023-02-18T06:48:23;21.30;40.70
15384;DHT22;7790;53.022;12.968;2023-02-18T06:52:24;21.20;40.80
15384;DHT22;7790;53.022;12.968;2023-02-18T06:56:25;21.20;40.80
15384;DHT22;7790;53.022;12.968;2023-02-18T07:00:26;21.20;40.80
15384;DHT22;7790;53.022;12.968;2023-02-18T07:04:27;21.20;40.80
15384;DHT22;7790;53.022;12.968;2023-02-18T07:08:28;21.20;40.80
15384;DHT22;7790;53.022;12.968;2023-02-18T07:12:30;21.30;41.00
15384;DHT22;7790;53.022;12.968;2023-02-18T07:16:31;21.30;40.90
15384;DHT22;7790;53.022;12.968;2023-02-18T07:20:33;21.30;40.90
15384;DHT22;7790;53.022;12.968;2023-02-18T07:24:33;21.40;40.90
15384;DHT22;7790;53.022;12.968;2023-02-18T07:28:35;21.40;41.10
15384;DHT22;7790;53.022;12.968;2023-02-18T07:32:35;21.40;41.20
15384;DHT22;7790;53.022;12.968;2023-02-18T07:36:38;21.40;41.10
15384;DHT22;7790;53.022;12.968;2023-02-18T07:40:39;21.50;41.20
15384;DHT22;7790;53.022;12.968;2023-02-18T07:44:40;21.40;40.90
15384;DHT22;7790;53.022;12.968;2023-02-18T07:48:41;21.40;40.80
15384;DHT22;7790;53.022;12.968;2023-02-18T07:52:42;21.40;40.80
15384;DHT22;7790;53.022;12.968;2023-02-18T07:56:43;21.30;40.70
15384;DHT22;7790;53.022;12.968;2023-02-18T08:00:44;21.20;40.80
15384;DHT22;7790;53.022;12.968;2023-02-18T08:04:47;21.20;40.80
15384;DHT22;7790;53.022;12.968;2023-02-18T08:08:48;21.20;40.80
15384;DHT22;7790;53.022;12.968;2023-02-18T08:12:49;21.20;40.80
15384;DHT22;7790;53.022;12.968;2023-02-18T08:16:50;21.20;40.80
15384;DHT22;7790;53.022;12.968;2023-02-18T08:20:51;21.20;40.90
15384;DHT22;7790;53.022;12.968;2023-02-18T08:24:56;21.30;40.90
15384;DHT22;7790;53.022;12.968;2023-02-18T08:28:56;21.30;40.90
15384;DHT22;7790;53.022;12.968;2023-02-18T08:32:57;21.30;41.00
15384;DHT22;7790;53.022;12.968;2023-02-18T08:37:00;21.50;41.50
15384;DHT22;7790;53.022;12.968;2023-02-18T08:41:03;21.50;40.90
15384;DHT22;7790;53.022;12.968;2023-02-18T08:45:05;21.60;41.10
15384;DHT22;7790;53.022;12.968;2023-02-18T08:49:06;21.60;41.10
15384;DHT22;7790;53.022;12.968;2023-02-18T08:53:07;21.60;41.00
15384;DHT22;7790;53.022;12.968;2023-02-18T08:57:08;21.60;41.10
15384;DHT22;7790;53.022;12.968;2023-02-18T09:01:10;21.50;41.10
15384;DHT22;7790;53.022;12.968;2023-02-18T09:05:11;21.50;41.30
15384;DHT22;7790;53.022;12.968;2023-02-18T09:09:13;21.40;41.70
15384;DHT22;7790;53.022;12.968;2023-02-18T09:13:14;21.40;42.00
15384;DHT22;7790;53.022;12.968;2023-02-18T09:17:14;21.40;42.30
15384;DHT22;7790;53.022;12.968;2023-02-18T09:21:16;21.40;42.30
15384;DHT22;7790;53.022;12.968;2023-02-18T09:25:20;21.40;42.20
15384;DHT22;7790;53.022;12.968;2023-02-18T09:29:21;21.40;42.30
15384;DHT22;7790;53.022;12.968;2023-02-18T09:33:22;21.30;41.60
15384;DHT22;7790;53.022;12.968;2023-02-18T09:37:22;21.00;41.00
15384;DHT22;7790;53.022;12.968;2023-02-18T09:41:45;21.00;41.00
15384;DHT22;7790;53.022;12.968;2023-02-18T09:45:48;20.90;40.80
15384;DHT22;7790;53.022;12.968;2023-02-18T09:49:55;20.90;40.60
15384;DHT22;7790;53.022;12.968;2023-02-18T09:53:57;20.90;40.60
15384;DHT22;7790;53.022;12.968;2023-02-18T09:58:02;20.90;40.50
15384;DHT22;7790;53.022;12.968;2023-02-18T10:02:09;20.90;40.40
15384;DHT22;7790;53.022;12.968;2023-02-18T10:06:21;20.90;40.40
15384;DHT22;7790;53.022;12.968;2023-02-18T10:10:37;20.80;40.30
15384;DHT22;7790;53.022;12.968;2023-02-18T10:14:39;20.70;40.50
15384;DHT22;7790;53.022;12.968;2023-02-18T10:18:42;20.70;40.50
15384;DHT22;7790;53.022;12.968;2023-02-18T10:22:45;20.90;40.90
15384;DHT22;7790;53.022;12.968;2023-02-18T10:26:46;21.00;41.40
15384;DHT22;7790;53.022;12.968;2023-02-18T10:30:57;21.10;41.50
15384;DHT22;7790;53.022;12.968;2023-02-18T10:39:17;21.20;41.60
15384;DHT22;7790;53.022;12.968;2023-02-18T10:51:55;21.30;41.20
15384;DHT22;7790;53.022;12.968;2023-02-18T10:55:57;21.40;41.20
15384;DHT22;7790;53.022;12.968;2023-02-18T11:00:05;21.40;41.20
15384;DHT22;7790;53.022;12.968;2023-02-18T11:04:16;21.50;41.00
15384;DHT22;7790;53.022;12.968;2023-02-18T11:08:27;21.50;41.00
15384;DHT22;7790;53.022;12.968;2023-02-18T11:16:40;21.30;41.00
15384;DHT22;7790;53.022;12.968;2023-02-18T11:20:54;21.30;41.10
15384;DHT22;7790;53.022;12.968;2023-02-18T11:24:58;21.20;41.10
15384;DHT22;7790;53.022;12.968;2023-02-18T11:29:06;21.20;41.20
15384;DHT22;7790;53.022;12.968;2023-02-18T11:37:24;21.20;41.20
15384;DHT22;7790;53.022;12.968;2023-02-18T11:41:36;21.20;41.20
15384;DHT22;7790;53.022;12.968;2023-02-18T11:45:38;21.20;41.70
15384;DHT22;7790;53.022;12.968;2023-02-18T11:49:43;21.30;41.20
15384;DHT22;7790;53.022;12.968;2023-02-18T11:54:05;21.30;41.30
15384;DHT22;7790;53.022;12.968;2023-02-18T11:58:20;21.30;41.20
15384;DHT22;7790;53.022;12.968;2023-02-18T12:02:30;21.40;41.30
15384;DHT22;7790;53.022;12.968;2023-02-18T12:06:38;21.40;41.30
15384;DHT22;7790;53.022;12.968;2023-02-18T12:11:12;21.50;41.30
15384;DHT22;7790;53.022;12.968;2023-02-18T12:15:20;21.50;41.40
15384;DHT22;7790;53.022;12.968;2023-02-18T12:54:13;21.30;41.60
15384;DHT22;7790;53.022;12.968;2023-02-18T12:58:55;21.30;41.70
15384;DHT22;7790;53.022;12.968;2023-02-18T13:16:18;21.50;41.50
15384;DHT22;7790;53.022;12.968;2023-02-18T13:20:29;21.50;41.60
15384;DHT22;7790;53.022;12.968;2023-02-18T13:24:40;21.40;41.60
15384;DHT22;7790;53.022;12.968;2023-02-18T13:28:48;21.40;41.60
15384;DHT22;7790;53.022;12.968;2023-02-18T13:37:30;21.20;41.80
15384;DHT22;7790;53.022;12.968;2023-02-18T13:41:37;21.30;41.70
15384;DHT22;7790;53.022;12.968;2023-02-18T13:45:39;21.30;41.50
15384;DHT22;7790;53.022;12.968;2023-02-18T13:49:39;21.40;41.30
15384;DHT22;7790;53.022;12.968;2023-02-18T13:53:43;21.40;41.30
15384;DHT22;7790;53.022;12.968;2023-02-18T13:57:46;21.40;41.30
15384;DHT22;7790;53.022;12.968;2023-02-18T14:01:50;21.50;41.30
15384;DHT22;7790;53.022;12.968;2023-02-18T14:05:55;21.50;41.20
15384;DHT22;7790;53.022;12.968;2023-02-18T14:09:58;21.50;41.20
15384;DHT22;7790;53.022;12.968;2023-02-18T14:26:42;21.50;41.10
15384;DHT22;7790;53.022;12.968;2023-02-18T14:30:44;21.40;41.20
15384;DHT22;7790;53.022;12.968;2023-02-18T14:43:55;21.40;41.50
15384;DHT22;7790;53.022;12.968;2023-02-18T14:52:53;21.40;41.40
15384;DHT22;7790;53.022;12.968;2023-02-18T14:57:05;21.40;41.30
15384;DHT22;7790;53.022;12.968;2023-02-18T15:01:30;21.50;41.30
15384;DHT22;7790;53.022;12.968;2023-02-18T15:05:31;21.50;41.20
15384;DHT22;7790;53.022;12.968;2023-02-18T15:09:47;21.50;41.40
15384;DHT22;7790;53.022;12.968;2023-02-18T15:13:48;21.60;41.30
15384;DHT22;7790;53.022;12.968;2023-02-18T15:17:49;21.60;41.20
15384;DHT22;7790;53.022;12.968;2023-02-18T15:21:53;21.60;41.10
15384;DHT22;7790;53.022;12.968;2023-02-18T15:25:54;21.60;41.10
15384;DHT22;7790;53.022;12.968;2023-02-18T15:30:20;21.60;41.00
15384;DHT22;7790;53.022;12.968;2023-02-18T15:34:37;21.50;41.10
15384;DHT22;7790;53.022;12.968;2023-02-18T15:38:39;21.40;41.30
15384;DHT22;7790;53.022;12.968;2023-02-18T15:42:50;21.40;41.40
15384;DHT22;7790;53.022;12.968;2023-02-18T15:46:51;21.40;41.50
15384;DHT22;7790;53.022;12.968;2023-02-18T15:50:55;21.40;41.60
15384;DHT22;7790;53.022;12.968;2023-02-18T15:55:02;21.40;41.40
15384;DHT22;7790;53.022;12.968;2023-02-18T15:59:09;21.40;41.30
15384;DHT22;7790;53.022;12.968;2023-02-18T16:03:22;21.50;41.30
15384;DHT22;7790;53.022;12.968;2023-02-18T16:07:27;21.50;41.30
15384;DHT22;7790;53.022;12.968;2023-02-18T16:11:34;21.60;41.20
15384;DHT22;7790;53.022;12.968;2023-02-18T16:15:40;21.60;41.00
15384;DHT22;7790;53.022;12.968;2023-02-18T16:19:59;21.60;41.00
15384;DHT22;7790;53.022;12.968;2023-02-18T16:24:01;21.60;41.00
15384;DHT22;7790;53.022;12.968;2023-02-18T16:28:25;21.50;41.00
15384;DHT22;7790;53.022;12.968;2023-02-18T16:32:27;21.40;41.00
15384;DHT22;7790;53.022;12.968;2023-02-18T16:36:28;21.30;41.00
15384;DHT22;7790;53.022;12.968;2023-02-18T16:40:35;21.20;41.10
15384;DHT22;7790;53.022;12.968;2023-02-18T16:44:37;21.10;41.30
15384;DHT22;7790;53.022;12.968;2023-02-18T16:48:40;21.00;41.40
15384;DHT22;7790;53.022;12.968;2023-02-18T16:52:41;21.00;41.60
15384;DHT22;7790;53.022;12.968;2023-02-18T16:56:42;21.00;41.50
15384;DHT22;7790;53.022;12.968;2023-02-18T17:00:43;20.90;41.60
15384;DHT22;7790;53.022;12.968;2023-02-18T17:04:45;20.80;41.60
15384;DHT22;7790;53.022;12.968;2023-02-18T17:08:46;20.80;41.60
15384;DHT22;7790;53.022;12.968;2023-02-18T17:12:47;20.70;41.70
15384;DHT22;7790;53.022;12.968;2023-02-18T17:16:51;20.70;41.80
15384;DHT22;7790;53.022;12.968;2023-02-18T17:20:53;20.60;41.80
15384;DHT22;7790;53.022;12.968;2023-02-18T17:24:53;20.60;41.90
15384;DHT22;7790;53.022;12.968;2023-02-18T17:28:56;20.50;41.80
15384;DHT22;7790;53.022;12.968;2023-02-18T17:32:59;20.40;41.90
15384;DHT22;7790;53.022;12.968;2023-02-18T17:37:00;20.40;41.90
15384;DHT22;7790;53.022;12.968;2023-02-18T17:41:01;20.30;41.80
15384;DHT22;7790;53.022;12.968;2023-02-18T17:45:04;20.30;42.00
15384;DHT22;7790;53.022;12.968;2023-02-18T17:49:10;20.40;42.10
15384;DHT22;7790;53.022;12.968;2023-02-18T17:53:11;20.50;42.10
15384;DHT22;7790;53.022;12.968;2023-02-18T17:57:12;20.70;42.10
15384;DHT22;7790;53.022;12.968;2023-02-18T18:01:13;20.90;41.80
15384;DHT22;7790;53.022;12.968;2023-02-18T18:05:36;21.10;41.50
15384;DHT22;7790;53.022;12.968;2023-02-18T18:09:37;21.30;41.30
15384;DHT22;7790;53.022;12.968;2023-02-18T18:13:37;21.40;41.10
15384;DHT22;7790;53.022;12.968;2023-02-18T18:17:38;21.50;41.00
15384;DHT22;7790;53.022;12.968;2023-02-18T18:21:39;21.60;41.10
15384;DHT22;7790;53.022;12.968;2023-02-18T18:25:57;21.60;41.00
15384;DHT22;7790;53.022;12.968;2023-02-18T18:29:58;21.60;41.00
15384;DHT22;7790;53.022;12.968;2023-02-18T18:33:59;21.70;40.90
15384;DHT22;7790;53.022;12.968;2023-02-18T18:38:01;21.80;41.00
15384;DHT22;7790;53.022;12.968;2023-02-18T18:42:02;21.80;40.90
15384;DHT22;7790;53.022;12.968;2023-02-18T18:46:03;21.90;40.80
15384;DHT22;7790;53.022;12.968;2023-02-18T18:50:04;21.90;40.70
15384;DHT22;7790;53.022;12.968;2023-02-18T18:54:05;22.00;40.70
15384;DHT22;7790;53.022;12.968;2023-02-18T18:58:06;22.00;40.70
15384;DHT22;7790;53.022;12.968;2023-02-18T19:02:14;22.00;40.70
15384;DHT22;7790;53.022;12.968;2023-02-18T19:06:15;22.10;40.70
15384;DHT22;7790;53.022;12.968;2023-02-18T19:10:17;22.10;40.60
15384;DHT22;7790;53.022;12.968;2023-02-18T19:14:18;22.10;40.80
15384;DHT22;7790;53.022;12.968;2023-02-18T19:18:21;22.00;40.70
15384;DHT22;7790;53.022;12.968;2023-02-18T19:22:22;22.00;40.80
15384;DHT22;7790;53.022;12.968;2023-02-18T19:26:23;21.90;40.90
15384;DHT22;7790;53.022;12.968;2023-02-18T19:30:27;21.80;41.00
15384;DHT22;7790;53.022;12.968;2023-02-18T19:34:28;21.70;41.00
15384;DHT22;7790;53.022;12.968;2023-02-18T19:38:29;21.60;40.40
15384;DHT22;7790;53.022;12.968;2023-02-18T19:42:29;21.60;40.90
15384;DHT22;7790;53.022;12.968;2023-02-18T19:46:30;21.60;40.90
15384;DHT22;7790;53.022;12.968;2023-02-18T19:50:32;21.60;41.10
15384;DHT22;7790;53.022;12.968;2023-02-18T19:54:32;21.80;41.10
15384;DHT22;7790;53.022;12.968;2023-02-18T19:58:34;21.80;41.70
15384;DHT22;7790;53.022;12.968;2023-02-18T20:02:35;22.00;41.80
15384;DHT22;7790;53.022;12.968;2023-02-18T20:06:36;21.90;42.20
15384;DHT22;7790;53.022;12.968;2023-02-18T20:10:37;22.10;42.40
15384;DHT22;7790;53.022;12.968;2023-02-18T20:14:39;22.10;42.80
15384;DHT22;7790;53.022;12.968;2023-02-18T20:18:40;22.10;42.90
15384;DHT22;7790;53.022;12.968;2023-02-18T20:22:40;22.10;42.70
15384;DHT22;7790;53.022;12.968;2023-02-18T20:26:42;22.00;42.70
15384;DHT22;7790;53.022;12.968;2023-02-18T20:30:42;21.90;42.70
15384;DHT22;7790;53.022;12.968;2023-02-18T20:34:44;21.80;42.80
15384;DHT22;7790;53.022;12.968;2023-02-18T20:38:48;21.80;42.80
15384;DHT22;7790;53.022;12.968;2023-02-18T20:42:51;21.80;42.70
15384;DHT22;7790;53.022;12.968;2023-02-18T20:46:52;21.70;42.40
15384;DHT22;7790;53.022;12.968;2023-02-18T20:50:52;21.60;42.40
15384;DHT22;7790;53.022;12.968;2023-02-18T20:54:53;21.50;42.20
15384;DHT22;7790;53.022;12.968;2023-02-18T20:58:54;21.40;42.20
15384;DHT22;7790;53.022;12.968;2023-02-18T21:02:55;21.40;42.40
15384;DHT22;7790;53.022;12.968;2023-02-18T21:06:59;21.40;42.30
15384;DHT22;7790;53.022;12.968;2023-02-18T21:11:03;21.50;42.10
15384;DHT22;7790;53.022;12.968;2023-02-18T21:15:05;21.50;41.90
15384;DHT22;7790;53.022;12.968;2023-02-18T21:19:09;21.60;41.80
15384;DHT22;7790;53.022;12.968;2023-02-18T21:23:12;21.70;41.60
15384;DHT22;7790;53.022;12.968;2023-02-18T21:27:13;21.70;41.50
15384;DHT22;7790;53.022;12.968;2023-02-18T21:31:19;21.80;41.40
15384;DHT22;7790;53.022;12.968;2023-02-18T21:35:20;21.80;41.30
15384;DHT22;7790;53.022;12.968;2023-02-18T21:39:20;21.80;41.20
15384;DHT22;7790;53.022;12.968;2023-02-18T21:43:21;21.90;41.10
15384;DHT22;7790;53.022;12.968;2023-02-18T21:47:22;21.90;41.10
15384;DHT22;7790;53.022;12.968;2023-02-18T21:51:23;21.90;41.00
15384;DHT22;7790;53.022;12.968;2023-02-18T21:55:43;21.90;41.10
15384;DHT22;7790;53.022;12.968;2023-02-18T21:59:44;21.80;41.00
15384;DHT22;7790;53.022;12.968;2023-02-18T22:03:45;21.70;41.00
15384;DHT22;7790;53.022;12.968;2023-02-18T22:07:46;21.60;41.00
15384;DHT22;7790;53.022;12.968;2023-02-18T22:11:46;21.60;41.10
15384;DHT22;7790;53.022;12.968;2023-02-18T22:15:54;21.60;41.10
15384;DHT22;7790;53.022;12.968;2023-02-18T22:19:54;21.60;41.10
15384;DHT22;7790;53.022;12.968;2023-02-18T22:23:55;21.60;41.10
15384;DHT22;7790;53.022;12.968;2023-02-18T22:27:56;21.60;41.00
15384;DHT22;7790;53.022;12.968;2023-02-18T22:31:57;21.70;40.90
15384;DHT22;7790;53.022;12.968;2023-02-18T22:36:05;21.70;40.90
15384;DHT22;7790;53.022;12.968;2023-02-18T22:40:07;21.70;40.80
15384;DHT22;7790;53.022;12.968;2023-02-18T22:44:11;21.80;40.70
15384;DHT22;7790;53.022;12.968;2023-02-18T22:48:12;21.80;40.60
15384;DHT22;7790;53.022;12.968;2023-02-18T22:52:13;21.70;40.60
15384;DHT22;7790;53.022;12.968;2023-02-18T22:56:16;21.70;40.60
15384;DHT22;7790;53.022;12.968;2023-02-18T23:00:22;21.60;40.60
15384;DHT22;7790;53.022;12.968;2023-02-18T23:04:23;21.50;40.60
15384;DHT22;7790;53.022;12.968;2023-02-18T23:08:24;21.50;40.80
15384;DHT22;7790;53.022;12.968;2023-02-18T23:12:25;21.50;40.80
15384;DHT22;7790;53.022;12.968;2023-02-18T23:16:26;21.40;40.80
15384;DHT22;7790;53.022;12.968;2023-02-18T23:20:26;21.50;40.70
15384;DHT22;7790;53.022;12.968;2023-02-18T23:24:46;21.60;40.80
15384;DHT22;7790;53.022;12.968;2023-02-18T23:28:50;21.60;40.80
15384;DHT22;7790;53.022;12.968;2023-02-18T23:32:51;21.70;40.80
15384;DHT22;7790;53.022;12.968;2023-02-18T23:36:52;21.70;40.70
15384;DHT22;7790;53.022;12.968;2023-02-18T23:40:53;21.70;40.70
15384;DHT22;7790;53.022;12.968;2023-02-18T23:44:54;21.80;40.80
15384;DHT22;7790;53.022;12.968;2023-02-18T23:48:57;21.80;40.80
15384;DHT22;7790;53.022;12.968;2023-02-18T23:52:58;21.80;40.90
15384;DHT22;7790;53.022;12.968;2023-02-18T23:56:59;21.80;41.00
